TimeMDT,TemperatureF,Dew PointF,Humidity,Sea Level PressureIn,VisibilityMPH,Wind Direction,Wind SpeedMPH,Gust SpeedMPH,PrecipitationIn,Events,Conditions,WindDirDegrees,DateUTC
12:15 AM,43.3,35.8,75,29.94,10.0,NE,10.4,-,N/A,,Clear,40,2012-10-22 06:15:00
12:55 AM,40.5,35.1,81,29.93,10.0,NE,9.2,-,N/A,,Clear,40,2012-10-22 06:55:00
1:15 AM,39.9,35.1,83,29.93,10.0,NE,9.2,-,N/A,,Clear,50,2012-10-22 07:15:00
1:55 AM,39.2,35.4,86,29.93,10.0,NE,9.2,-,N/A,,Clear,40,2012-10-22 07:55:00
2:15 AM,39.4,35.4,86,29.93,10.0,North,10.4,-,N/A,,Clear,10,2012-10-22 08:15:00
2:35 AM,38.5,35.2,88,29.94,10.0,North,9.2,-,N/A,,Clear,360,2012-10-22 08:35:00
3:15 AM,37.4,34.5,89,29.93,10.0,NNE,9.2,-,N/A,,Clear,30,2012-10-22 09:15:00
3:35 AM,37.0,34.7,91,29.93,10.0,NNE,8.1,-,N/A,,Clear,30,2012-10-22 09:35:00
3:55 AM,36.9,34.9,93,29.93,10.0,NNE,8.1,-,N/A,,Clear,20,2012-10-22 09:55:00
4:15 AM,36.5,34.5,93,29.93,10.0,NNE,8.1,-,N/A,,Clear,20,2012-10-22 10:15:00
4:35 AM,34.0,32.5,94,29.94,10.0,NNE,5.8,-,N/A,,Clear,30,2012-10-22 10:35:00
4:55 AM,34.3,33.1,95,29.94,10.0,NE,4.6,-,N/A,,Clear,40,2012-10-22 10:55:00
5:15 AM,33.3,32.0,95,29.94,10.0,ENE,5.8,-,N/A,,Clear,70,2012-10-22 11:15:00
5:35 AM,32.9,32.0,96,29.94,10.0,NNE,5.8,-,N/A,,Clear,20,2012-10-22 11:35:00
6:15 AM,32.4,32.0,99,29.94,7.0,NE,6.9,-,N/A,,Clear,40,2012-10-22 12:15:00
6:35 AM,32.0,32.0,100,29.94,5.0,NE,8.1,-,N/A,,Scattered Clouds,40,2012-10-22 12:35:00
7:15 AM,37.6,37.0,98,29.94,0.2,NNE,4.6,-,N/A,,Overcast,20,2012-10-22 13:15:00
7:35 AM,38.7,38.3,99,29.96,0.2,NE,5.8,-,N/A,,Overcast,40,2012-10-22 13:35:00
8:15 AM,39.2,38.5,97,29.96,0.2,ENE,4.6,-,N/A,,Overcast,60,2012-10-22 14:15:00
8:35 AM,39.2,38.7,98,29.96,0.2,East,4.6,-,N/A,,Overcast,80,2012-10-22 14:35:00
8:55 AM,39.2,38.7,98,29.97,0.5,ESE,4.6,-,N/A,,Overcast,110,2012-10-22 14:55:00
9:15 AM,39.4,39.0,99,29.96,0.5,East,6.9,-,N/A,,Overcast,90,2012-10-22 15:15:00
9:35 AM,39.6,39.2,99,29.96,0.2,ENE,4.6,-,N/A,,Overcast,70,2012-10-22 15:35:00
9:55 AM,39.6,38.8,97,29.96,0.2,East,4.6,-,N/A,,Overcast,80,2012-10-22 15:55:00
10:15 AM,40.3,39.4,97,29.95,0.8,ENE,3.5,-,N/A,,Overcast,60,2012-10-22 16:15:00
10:35 AM,41.2,39.0,92,29.96,2.0,Calm,Calm,-,N/A,,Overcast,0,2012-10-22 16:35:00
10:55 AM,41.9,38.5,88,29.95,2.5,East,4.6,-,N/A,,Overcast,90,2012-10-22 16:55:00
11:15 AM,43.3,38.5,83,29.94,4.0,East,4.6,-,N/A,,Overcast,90,2012-10-22 17:15:00
11:35 AM,45.9,39.0,77,29.93,4.0,East,5.8,-,N/A,,Mostly Cloudy,90,2012-10-22 17:35:00
11:55 AM,47.3,39.0,73,29.92,4.0,ESE,4.6,-,N/A,,Haze,110,2012-10-22 17:55:00
12:15 PM,49.3,39.2,68,29.91,5.0,East,5.8,-,N/A,,Clear,90,2012-10-22 18:15:00
12:35 PM,50.4,39.0,65,29.89,7.0,ENE,6.9,-,N/A,,Clear,70,2012-10-22 18:35:00
12:55 PM,53.1,39.2,59,29.88,10.0,East,10.4,-,N/A,,Clear,90,2012-10-22 18:55:00
1:15 PM,54.3,39.4,57,29.87,10.0,East,11.5,-,N/A,,Clear,80,2012-10-22 19:15:00
1:55 PM,58.3,40.1,51,29.84,10.0,East,9.2,-,N/A,,Clear,80,2012-10-22 19:55:00
2:15 PM,60.3,40.1,47,29.81,10.0,East,11.5,-,N/A,,Clear,80,2012-10-22 20:15:00
2:35 PM,62.4,39.7,43,29.80,10.0,East,12.7,16.1,N/A,,Clear,90,2012-10-22 20:35:00
2:55 PM,64.2,39.7,41,29.80,10.0,East,10.4,-,N/A,,Clear,80,2012-10-22 20:55:00
3:15 PM,66.0,39.2,37,29.79,10.0,East,10.4,17.3,N/A,,Clear,100,2012-10-22 21:15:00
3:35 PM,67.1,38.5,35,29.78,10.0,ESE,15.0,20.7,N/A,,Clear,110,2012-10-22 21:35:00
3:55 PM,67.5,39.6,36,29.77,10.0,East,16.1,20.7,N/A,,Clear,100,2012-10-22 21:55:00
4:15 PM,67.1,40.1,37,29.76,10.0,ESE,18.4,21.9,N/A,,Clear,110,2012-10-22 22:15:00
4:35 PM,66.6,40.3,38,29.75,10.0,ESE,19.6,-,N/A,,Clear,120,2012-10-22 22:35:00
5:15 PM,64.4,41.9,44,29.75,10.0,ESE,13.8,-,N/A,,Clear,110,2012-10-22 23:15:00
5:35 PM,63.3,41.7,45,29.75,10.0,ESE,15.0,-,N/A,,Clear,110,2012-10-22 23:35:00
5:55 PM,60.8,41.7,49,29.74,10.0,East,12.7,-,N/A,,Clear,100,2012-10-22 23:55:00
6:15 PM,58.3,42.3,55,29.75,10.0,East,12.7,-,N/A,,Clear,100,2012-10-23 00:15:00
6:35 PM,55.6,42.1,60,29.75,10.0,East,11.5,-,N/A,,Clear,90,2012-10-23 00:35:00
6:55 PM,54.5,42.8,65,29.76,10.0,ESE,11.5,-,N/A,,Clear,110,2012-10-23 00:55:00
7:15 PM,54.0,43.2,67,29.76,10.0,East,11.5,-,N/A,,Clear,90,2012-10-23 01:15:00
7:35 PM,51.3,42.8,73,29.76,10.0,East,11.5,-,N/A,,Clear,100,2012-10-23 01:35:00
7:55 PM,50.0,42.4,75,29.76,10.0,East,10.4,-,N/A,,Clear,80,2012-10-23 01:55:00
8:55 PM,49.1,43.0,79,29.75,10.0,East,10.4,-,N/A,,Clear,100,2012-10-23 02:55:00
9:15 PM,49.5,42.3,76,29.75,10.0,East,8.1,-,N/A,,Clear,100,2012-10-23 03:15:00
9:35 PM,52.2,41.4,67,29.74,10.0,ESE,12.7,18.4,N/A,,Clear,120,2012-10-23 03:35:00
9:55 PM,51.3,41.2,68,29.74,10.0,ESE,11.5,-,N/A,,Clear,120,2012-10-23 03:55:00
10:15 PM,50.5,40.1,67,29.73,10.0,SE,6.9,-,N/A,,Clear,140,2012-10-23 04:15:00
10:35 PM,50.9,38.5,62,29.73,10.0,ESE,5.8,-,N/A,,Clear,120,2012-10-23 04:35:00
10:55 PM,49.8,37.4,62,29.73,10.0,South,3.5,-,N/A,,Clear,190,2012-10-23 04:55:00
11:15 PM,50.9,36.3,57,29.73,10.0,South,3.5,-,N/A,,Clear,180,2012-10-23 05:15:00
11:35 PM,49.1,36.1,61,29.72,10.0,South,3.5,-,N/A,,Clear,170,2012-10-23 05:35:00
11:55 PM,48.2,36.0,63,29.72,10.0,Calm,Calm,-,N/A,,Clear,0,2012-10-23 05:55:00